Time;durP1;ratioP1;P1;durP2;ratioP2;P2;SDS_P1;SDS_P2;PMS_P1;PMS_P2;Temp;Humidity;BMP_temperature;BMP_pressure;BME280_temperature;BME280_humidity;BME280_pressure;Samples;Min_cycle;Max_cycle;Signal;HPM_P1;HPM_P2
2020/12/03 00:01:55;;;;;;;;;;;7.90;81.20;;;;;;5053472;28;19920;-89
2020/12/03 00:04:20;;;;;;;;;;;8.00;81.30;;;;;;5037216;28;19955;-88
2020/12/03 00:06:49;;;;;;;;;;;8.00;81.30;;;;;;5036814;28;20358;-88
2020/12/03 00:09:16;;;;;;;;;;;7.90;81.30;;;;;;5053845;28;19961;-89
2020/12/03 00:11:46;;;;;;;;;;;8.00;81.40;;;;;;5055082;28;19980;-89
2020/12/03 00:14:12;;;;;;;;;;;8.00;81.30;;;;;;5053756;28;19916;-89
2020/12/03 00:16:38;;;;;;;;;;;7.90;81.30;;;;;;5052985;28;19921;-89
2020/12/03 00:19:05;;;;;;;;;;;7.90;81.30;;;;;;5053583;28;19912;-88
2020/12/03 00:21:49;;;;;;;;;;;8.00;81.30;;;;;;5052975;28;19931;-88
2020/12/03 00:24:17;;;;;;;;;;;8.00;81.30;;;;;;5053420;28;20404;-89
2020/12/03 00:26:43;;;;;;;;;;;8.00;81.30;;;;;;5052955;28;19966;-88
2020/12/03 00:29:09;;;;;;;;;;;8.00;81.40;;;;;;5086780;28;19916;-88
2020/12/03 00:31:34;;;;;;;;;;;8.00;81.40;;;;;;5053042;28;19909;-88
2020/12/03 00:34:03;;;;;;;;;;;8.00;81.40;;;;;;5069849;28;20011;-88
2020/12/03 00:36:28;;;;;;;;;;;8.00;81.40;;;;;;5052937;28;19978;-88
2020/12/03 00:38:54;;;;;;;;;;;8.00;81.40;;;;;;5070296;28;20291;-88
2020/12/03 00:41:19;;;;;;;;;;;8.00;81.40;;;;;;5086822;28;20191;-88
2020/12/03 00:43:45;;;;;;;;;;;8.00;81.40;;;;;;5053833;28;20011;-88
2020/12/03 00:46:11;;;;;;;;;;;8.00;81.40;;;;;;5069552;28;20418;-88
2020/12/03 00:48:36;;;;;;;;;;;8.00;81.40;;;;;;5052351;28;19954;-88
2020/12/03 00:51:02;;;;;;;;;;;8.00;81.40;;;;;;5052754;28;20278;-88
2020/12/03 00:53:27;;;;;;;;;;;8.00;81.30;;;;;;5035830;28;19917;-89
2020/12/03 00:55:53;;;;;;;;;;;8.00;81.30;;;;;;5052487;28;20358;-88
2020/12/03 00:58:18;;;;;;;;;;;8.00;81.30;;;;;;5053241;28;19917;-88
2020/12/03 01:00:47;;;;;;;;;;;8.00;81.30;;;;;;5052347;28;20010;-88
2020/12/03 01:03:13;;;;;;;;;;;8.00;81.30;;;;;;5052728;28;19913;-88
2020/12/03 01:05:38;;;;;;;;;;;8.00;81.30;;;;;;5035865;28;19913;-88
2020/12/03 01:08:04;;;;;;;;;;;8.00;81.30;;;;;;5035753;28;19912;-88
2020/12/03 01:10:31;;;;;;;;;;;8.00;81.30;;;;;;5053476;28;19970;-88
2020/12/03 01:12:57;;;;;;;;;;;8.00;81.40;;;;;;5051745;28;19912;-88
2020/12/03 01:15:22;;;;;;;;;;;8.00;81.40;;;;;;5035731;28;20281;-88
2020/12/03 01:17:48;;;;;;;;;;;8.00;81.40;;;;;;5051946;28;20023;-88
2020/12/03 01:20:18;;;;;;;;;;;8.00;81.40;;;;;;5052263;28;19936;-88
2020/12/03 01:22:44;;;;;;;;;;;8.00;81.40;;;;;;5051965;28;19912;-90
2020/12/03 01:25:10;;;;;;;;;;;8.00;81.40;;;;;;5052132;28;19931;-88
2020/12/03 01:27:36;;;;;;;;;;;8.10;81.40;;;;;;5051799;28;19920;-89
2020/12/03 01:30:04;;;;;;;;;;;8.00;81.40;;;;;;5052202;28;20407;-89
2020/12/03 01:32:29;;;;;;;;;;;8.00;81.40;;;;;;5052068;28;20378;-89
2020/12/03 01:34:55;;;;;;;;;;;8.10;81.50;;;;;;5035071;28;19928;-89
2020/12/03 01:37:20;;;;;;;;;;;8.10;81.50;;;;;;5035222;28;19917;-89
2020/12/03 01:39:46;;;;;;;;;;;8.00;81.50;;;;;;5052079;28;19920;-89
2020/12/03 01:42:12;;;;;;;;;;;8.00;81.50;;;;;;5051898;28;19909;-88
2020/12/03 01:44:40;;;;;;;;;;;8.00;81.40;;;;;;5051512;28;19909;-88
2020/12/03 01:47:08;;;;;;;;;;;8.00;81.50;;;;;;5051931;28;19917;-89
2020/12/03 01:49:34;;;;;;;;;;;8.00;81.70;;;;;;5051480;28;19916;-88
2020/12/03 01:51:59;;;;;;;;;;;8.00;81.80;;;;;;5053297;28;19909;-88
2020/12/03 01:54:25;;;;;;;;;;;8.10;81.80;;;;;;5052911;28;19921;-88
2020/12/03 01:56:56;;;;;;;;;;;8.00;81.70;;;;;;5052730;28;19963;-89
2020/12/03 01:59:22;;;;;;;;;;;8.00;81.80;;;;;;5052508;28;19913;-91
2020/12/03 02:01:48;;;;;;;;;;;8.10;81.80;;;;;;5050742;28;19999;-89
2020/12/03 02:04:14;;;;;;;;;;;8.00;81.80;;;;;;5051464;28;19913;-89
2020/12/03 02:06:40;;;;;;;;;;;8.10;81.90;;;;;;5034269;28;19912;-89
2020/12/03 02:09:07;;;;;;;;;;;8.00;81.90;;;;;;5034863;28;19960;-89
2020/12/03 02:11:32;;;;;;;;;;;8.00;81.80;;;;;;5050936;28;19916;-89
2020/12/03 02:13:59;;;;;;;;;;;8.10;81.90;;;;;;5051171;28;19912;-90
2020/12/03 02:16:30;;;;;;;;;;;8.00;82.10;;;;;;5052158;28;19923;-89
2020/12/03 02:18:55;;;;;;;;;;;8.00;82.10;;;;;;5050424;28;19912;-89
2020/12/03 02:21:21;;;;;;;;;;;8.00;82.10;;;;;;5052857;28;20379;-89
2020/12/03 02:26:20;;;;;;;;;;;8.00;82.10;;;;;;5049587;28;19924;-83
2020/12/03 02:28:46;;;;;;;;;;;8.00;82.00;;;;;;5049845;28;20423;-82
2020/12/03 02:31:12;;;;;;;;;;;8.00;82.00;;;;;;5050950;28;20011;-82
2020/12/03 02:33:38;;;;;;;;;;;8.00;81.90;;;;;;5051312;28;19921;-82
2020/12/03 02:36:04;;;;;;;;;;;8.00;82.00;;;;;;5049883;28;20450;-82
2020/12/03 02:38:29;;;;;;;;;;;8.00;81.90;;;;;;5051327;28;19912;-83
2020/12/03 02:40:56;;;;;;;;;;;8.00;81.90;;;;;;5050891;28;19912;-83
2020/12/03 02:43:22;;;;;;;;;;;8.10;81.90;;;;;;5051271;28;19913;-83
2020/12/03 02:45:47;;;;;;;;;;;8.10;81.90;;;;;;5049474;28;19933;-82
2020/12/03 02:48:13;;;;;;;;;;;8.10;81.90;;;;;;5033053;28;20386;-83
2020/12/03 02:50:38;;;;;;;;;;;8.10;81.80;;;;;;5049450;28;20007;-83
2020/12/03 02:53:03;;;;;;;;;;;8.10;81.90;;;;;;5051091;28;19917;-83
2020/12/03 02:55:29;;;;;;;;;;;8.00;81.70;;;;;;5033172;28;19913;-82
2020/12/03 02:57:54;;;;;;;;;;;8.10;81.80;;;;;;5050713;28;19987;-82
2020/12/03 03:00:20;;;;;;;;;;;8.10;81.90;;;;;;5032925;28;20014;-83
2020/12/03 03:02:47;;;;;;;;;;;8.00;81.80;;;;;;5050690;28;19924;-82
2020/12/03 03:05:13;;;;;;;;;;;8.00;81.80;;;;;;5050979;28;19957;-82
2020/12/03 03:07:38;;;;;;;;;;;8.10;81.90;;;;;;5049342;28;19956;-83
2020/12/03 03:10:04;;;;;;;;;;;8.00;81.80;;;;;;5050953;28;20018;-83
2020/12/03 03:12:29;;;;;;;;;;;8.00;81.70;;;;;;5049684;28;19921;-82
2020/12/03 03:14:55;;;;;;;;;;;8.00;81.70;;;;;;5032621;28;19917;-83
2020/12/03 03:17:20;;;;;;;;;;;8.00;81.70;;;;;;5050779;28;19917;-82
2020/12/03 03:19:46;;;;;;;;;;;8.00;81.70;;;;;;5049225;28;20289;-83
2020/12/03 03:22:12;;;;;;;;;;;8.00;81.70;;;;;;5050834;28;19959;-83
2020/12/03 03:24:37;;;;;;;;;;;8.00;81.70;;;;;;5050293;28;19925;-82
2020/12/03 03:27:02;;;;;;;;;;;8.00;81.70;;;;;;5050791;28;19916;-83
2020/12/03 03:29:28;;;;;;;;;;;8.00;81.70;;;;;;5049209;28;19974;-82
2020/12/03 03:31:54;;;;;;;;;;;8.00;81.80;;;;;;5048931;28;20408;-83
2020/12/03 03:34:19;;;;;;;;;;;8.00;81.70;;;;;;5050712;28;19913;-82
2020/12/03 03:36:44;;;;;;;;;;;7.90;81.70;;;;;;5052388;28;19928;-82
2020/12/03 03:39:15;;;;;;;;;;;8.00;81.70;;;;;;5069806;28;19940;-82
2020/12/03 03:41:41;;;;;;;;;;;8.00;81.70;;;;;;5054284;28;19916;-83
2020/12/03 03:44:07;;;;;;;;;;;8.00;81.70;;;;;;5053122;28;19920;-82
2020/12/03 03:46:32;;;;;;;;;;;7.90;81.70;;;;;;5069737;28;19931;-83
2020/12/03 03:48:58;;;;;;;;;;;7.90;81.70;;;;;;5086304;28;20374;-82
2020/12/03 03:51:23;;;;;;;;;;;7.90;81.90;;;;;;5052927;28;20091;-82
2020/12/03 03:53:49;;;;;;;;;;;7.90;81.90;;;;;;5052459;28;19924;-83
2020/12/03 03:56:14;;;;;;;;;;;7.90;81.80;;;;;;5069400;28;19928;-83
2020/12/03 03:58:40;;;;;;;;;;;7.90;81.90;;;;;;5086126;28;20350;-83
2020/12/03 04:01:05;;;;;;;;;;;7.90;81.90;;;;;;5054214;28;19924;-82
2020/12/03 04:03:31;;;;;;;;;;;7.90;81.90;;;;;;5054030;28;19908;-83
2020/12/03 04:05:56;;;;;;;;;;;7.90;81.90;;;;;;5052360;28;19913;-83
2020/12/03 04:08:23;;;;;;;;;;;7.90;82.10;;;;;;5053948;28;19916;-83
2020/12/03 04:10:50;;;;;;;;;;;7.90;82.10;;;;;;5053709;28;19915;-83
2020/12/03 04:13:17;;;;;;;;;;;7.90;82.10;;;;;;5053871;28;20122;-83
2020/12/03 04:15:42;;;;;;;;;;;7.90;82.10;;;;;;5052089;28;19909;-82
2020/12/03 04:18:08;;;;;;;;;;;7.90;82.10;;;;;;5052444;28;19935;-82
2020/12/03 04:20:34;;;;;;;;;;;7.90;82.10;;;;;;5069159;28;19917;-82
2020/12/03 04:23:00;;;;;;;;;;;7.90;82.20;;;;;;5053375;28;19913;-83
2020/12/03 04:25:25;;;;;;;;;;;7.90;82.20;;;;;;5052117;28;20337;-82
2020/12/03 04:27:51;;;;;;;;;;;7.90;82.20;;;;;;5053270;28;19913;-82
2020/12/03 04:30:16;;;;;;;;;;;7.90;82.30;;;;;;5053638;28;19996;-83
2020/12/03 04:32:42;;;;;;;;;;;7.80;82.20;;;;;;5035218;28;19913;-82
2020/12/03 04:35:08;;;;;;;;;;;7.80;82.20;;;;;;5052096;28;19912;-82
2020/12/03 04:37:33;;;;;;;;;;;7.80;82.20;;;;;;5052052;28;19913;-83
2020/12/03 04:39:59;;;;;;;;;;;7.80;82.20;;;;;;5053087;28;20377;-82
2020/12/03 04:42:32;;;;;;;;;;;7.90;82.10;;;;;;5052100;28;19917;-82
2020/12/03 04:45:01;;;;;;;;;;;7.90;82.10;;;;;;5053002;28;19920;-82
2020/12/03 04:47:56;;;;;;;;;;;7.90;82.20;;;;;;5050867;28;19909;-82
2020/12/03 04:50:40;;;;;;;;;;;7.90;82.20;;;;;;5043265;28;19915;-82
2020/12/03 04:53:20;;;;;;;;;;;7.90;82.20;;;;;;5051709;28;19916;-83
2020/12/03 04:55:55;;;;;;;;;;;7.90;82.10;;;;;;5052582;28;20358;-82
2020/12/03 04:58:42;;;;;;;;;;;7.90;82.10;;;;;;5053110;28;19915;-82
2020/12/03 05:01:10;;;;;;;;;;;7.80;82.10;;;;;;5051303;28;19919;-83
2020/12/03 05:03:42;;;;;;;;;;;7.90;82.10;;;;;;5053199;28;19955;-83
2020/12/03 05:06:24;;;;;;;;;;;7.80;82.10;;;;;;5051522;28;19938;-82
2020/12/03 05:09:01;;;;;;;;;;;7.80;82.10;;;;;;5053109;28;19915;-82
2020/12/03 05:11:32;;;;;;;;;;;7.90;82.40;;;;;;5051507;28;19960;-82
2020/12/03 05:14:02;;;;;;;;;;;7.80;82.30;;;;;;5052366;28;19912;-82
2020/12/03 05:16:46;;;;;;;;;;;7.80;82.40;;;;;;5052625;28;20395;-82
2020/12/03 05:19:14;;;;;;;;;;;7.80;82.40;;;;;;5051225;28;19920;-83
2020/12/03 05:21:41;;;;;;;;;;;7.80;82.30;;;;;;5052209;28;19913;-82
2020/12/03 05:24:09;;;;;;;;;;;7.80;82.50;;;;;;5049671;28;19979;-83
2020/12/03 05:26:35;;;;;;;;;;;7.80;82.40;;;;;;5051882;28;19917;-83
2020/12/03 05:29:01;;;;;;;;;;;7.80;82.40;;;;;;5052060;28;19917;-83
2020/12/03 05:31:32;;;;;;;;;;;7.80;82.50;;;;;;5052121;28;20377;-82
2020/12/03 05:34:09;;;;;;;;;;;7.80;82.50;;;;;;5050632;28;19920;-83
2020/12/03 05:36:39;;;;;;;;;;;7.80;82.40;;;;;;5052336;28;19924;-83
2020/12/03 05:39:13;;;;;;;;;;;7.80;82.50;;;;;;5050573;28;19909;-82
2020/12/03 05:41:41;;;;;;;;;;;7.80;82.50;;;;;;5052029;28;20381;-83
2020/12/03 05:44:39;;;;;;;;;;;7.70;82.50;;;;;;5051673;28;19963;-82
2020/12/03 05:47:06;;;;;;;;;;;7.80;82.60;;;;;;5020188;28;19923;-82
2020/12/03 05:49:39;;;;;;;;;;;7.70;82.50;;;;;;5051538;28;19913;-82
2020/12/03 05:52:06;;;;;;;;;;;7.80;82.50;;;;;;5051251;28;19909;-82
2020/12/03 05:54:31;;;;;;;;;;;7.70;82.40;;;;;;5052696;28;20453;-82
2020/12/03 05:56:57;;;;;;;;;;;7.80;82.50;;;;;;5052173;28;19921;-82
2020/12/03 05:59:24;;;;;;;;;;;7.80;82.40;;;;;;5084821;28;19912;-82
2020/12/03 06:01:58;;;;;;;;;;;7.80;82.50;;;;;;5050901;28;20442;-82
2020/12/03 06:04:50;;;;;;;;;;;7.80;82.60;;;;;;5052636;28;20099;-82
2020/12/03 06:07:34;;;;;;;;;;;7.70;82.50;;;;;;5037699;28;19912;-82
2020/12/03 06:10:00;;;;;;;;;;;7.70;82.60;;;;;;5053328;28;19908;-82
2020/12/03 06:12:31;;;;;;;;;;;7.70;82.60;;;;;;5052444;28;19912;-82
2020/12/03 06:15:11;;;;;;;;;;;7.70;82.60;;;;;;5051919;28;20354;-82
2020/12/03 06:17:37;;;;;;;;;;;7.70;82.50;;;;;;5053613;28;20353;-81
2020/12/03 06:20:17;;;;;;;;;;;7.70;82.40;;;;;;5053127;28;19909;-82
2020/12/03 06:23:03;;;;;;;;;;;7.70;82.50;;;;;;5053243;28;19928;-81
2020/12/03 06:25:57;;;;;;;;;;;7.70;82.40;;;;;;5031958;28;20328;-82
2020/12/03 06:28:31;;;;;;;;;;;7.70;82.50;;;;;;5015786;28;20405;-82
2020/12/03 06:31:13;;;;;;;;;;;7.70;82.60;;;;;;5051198;28;19909;-82
2020/12/03 06:33:47;;;;;;;;;;;7.70;82.60;;;;;;5051479;28;19955;-82
2020/12/03 06:36:39;;;;;;;;;;;7.70;82.60;;;;;;5051931;28;19913;-82
2020/12/03 06:39:23;;;;;;;;;;;7.70;82.60;;;;;;5051398;28;19912;-82
2020/12/03 06:41:51;;;;;;;;;;;7.70;82.50;;;;;;5050367;28;19921;-82
2020/12/03 06:44:22;;;;;;;;;;;7.70;82.40;;;;;;5051528;28;20416;-82
2020/12/03 06:47:07;;;;;;;;;;;7.70;83.10;;;;;;5048846;28;20305;-82
2020/12/03 06:49:33;;;;;;;;;;;7.70;82.60;;;;;;5051990;28;19909;-82
2020/12/03 06:52:28;;;;;;;;;;;7.70;82.50;;;;;;5050356;28;19919;-82
2020/12/03 06:55:12;;;;;;;;;;;7.70;82.40;;;;;;5038037;28;19913;-82
2020/12/03 06:57:50;;;;;;;;;;;7.70;82.40;;;;;;5051822;28;19924;-82
2020/12/03 07:00:34;;;;;;;;;;;7.70;82.40;;;;;;5050572;28;19994;-83
2020/12/03 07:03:11;;;;;;;;;;;7.70;82.30;;;;;;5051262;28;20363;-82
2020/12/03 07:05:56;;;;;;;;;;;7.70;82.30;;;;;;5041732;28;19917;-84
2020/12/03 07:08:33;;;;;;;;;;;7.70;82.30;;;;;;5045186;28;19919;-84
2020/12/03 07:11:17;;;;;;;;;;;7.70;82.20;;;;;;5050442;28;19951;-84
2020/12/03 07:14:01;;;;;;;;;;;7.70;82.20;;;;;;5054871;28;19920;-83
2020/12/03 07:16:46;;;;;;;;;;;7.70;82.20;;;;;;5054261;28;19920;-84
2020/12/03 07:19:30;;;;;;;;;;;7.70;82.20;;;;;;5053316;28;19962;-84
2020/12/03 07:22:05;;;;;;;;;;;7.70;82.20;;;;;;5051059;28;20016;-84
2020/12/03 07:24:32;;;;;;;;;;;7.60;82.10;;;;;;5053979;28;19913;-84
2020/12/03 07:27:11;;;;;;;;;;;7.60;82.20;;;;;;5050379;28;20014;-83
2020/12/03 07:30:08;;;;;;;;;;;7.60;82.10;;;;;;5054820;28;19958;-82
2020/12/03 07:32:41;;;;;;;;;;;7.60;82.20;;;;;;5030044;28;19920;-82
2020/12/03 07:35:22;;;;;;;;;;;7.70;82.20;;;;;;5053728;28;19913;-82
2020/12/03 07:38:04;;;;;;;;;;;7.60;82.10;;;;;;5054753;28;19913;-82
2020/12/03 07:40:30;;;;;;;;;;;7.60;82.20;;;;;;5053893;28;19919;-82
2020/12/03 07:43:14;;;;;;;;;;;7.60;82.20;;;;;;5053593;28;19953;-83
2020/12/03 07:45:43;;;;;;;;;;;7.60;82.20;;;;;;5054305;28;19958;-83
2020/12/03 07:48:20;;;;;;;;;;;7.60;82.20;;;;;;5055176;28;19959;-82
2020/12/03 07:50:49;;;;;;;;;;;7.60;82.20;;;;;;5053303;28;20389;-82
2020/12/03 07:53:14;;;;;;;;;;;7.60;82.80;;;;;;5054766;28;19916;-82
2020/12/03 07:55:40;;;;;;;;;;;7.60;82.20;;;;;;5055130;28;20012;-82
2020/12/03 07:58:26;;;;;;;;;;;7.60;82.20;;;;;;5054085;28;20002;-82
2020/12/03 08:00:52;;;;;;;;;;;7.60;82.20;;;;;;5053349;28;19912;-82
2020/12/03 08:03:36;;;;;;;;;;;7.60;82.10;;;;;;5054764;28;19972;-82
2020/12/03 08:06:07;;;;;;;;;;;7.60;82.10;;;;;;5052407;28;20348;-82
2020/12/03 08:08:34;;;;;;;;;;;7.60;82.10;;;;;;5054507;28;19916;-82
2020/12/03 08:11:00;;;;;;;;;;;7.60;82.20;;;;;;5053920;28;19928;-82
2020/12/03 08:13:40;;;;;;;;;;;7.60;82.10;;;;;;5070044;28;19921;-82
2020/12/03 08:16:06;;;;;;;;;;;7.60;82.70;;;;;;5052434;28;19921;-83
2020/12/03 08:18:36;;;;;;;;;;;7.60;82.10;;;;;;5053365;28;20430;-82
2020/12/03 08:21:01;;;;;;;;;;;7.60;82.00;;;;;;5053799;28;20003;-84
2020/12/03 08:23:27;;;;;;;;;;;7.60;82.00;;;;;;5087074;28;19948;-82
2020/12/03 08:25:52;;;;;;;;;;;7.60;82.10;;;;;;5061482;23;19929;-84
2020/12/03 08:28:20;;;;;;;;;;;7.60;82.10;;;;;;5054360;28;20301;-85
2020/12/03 08:30:52;;;;;;;;;;;7.60;82.00;;;;;;5052480;28;19909;-85
2020/12/03 08:33:24;;;;;;;;;;;7.60;82.00;;;;;;5054086;28;19921;-84
2020/12/03 08:35:52;;;;;;;;;;;7.60;82.10;;;;;;5053786;28;19966;-86
2020/12/03 08:38:22;;;;;;;;;;;7.60;82.10;;;;;;5048230;28;20411;-83
2020/12/03 08:40:48;;;;;;;;;;;7.60;82.10;;;;;;5048136;28;19916;-83
2020/12/03 08:43:15;;;;;;;;;;;7.60;82.10;;;;;;5051349;28;19916;-83
2020/12/03 08:45:46;;;;;;;;;;;7.60;82.10;;;;;;5051235;28;20388;-83
2020/12/03 08:48:16;;;;;;;;;;;7.60;82.10;;;;;;5052992;28;19917;-83
2020/12/03 08:50:42;;;;;;;;;;;7.60;82.10;;;;;;5052789;28;19913;-84
2020/12/03 08:53:08;;;;;;;;;;;7.60;82.10;;;;;;5035729;28;19970;-84
2020/12/03 08:55:37;;;;;;;;;;;7.60;82.00;;;;;;5051935;28;19920;-84
2020/12/03 08:58:03;;;;;;;;;;;7.60;82.10;;;;;;5051147;28;19916;-84
2020/12/03 09:00:28;;;;;;;;;;;7.60;82.10;;;;;;5054255;28;19923;-84
2020/12/03 09:02:54;;;;;;;;;;;7.60;82.10;;;;;;5054508;28;19924;-84
2020/12/03 09:05:20;;;;;;;;;;;7.60;82.10;;;;;;5053656;28;20366;-85
2020/12/03 09:07:47;;;;;;;;;;;7.60;82.10;;;;;;5054415;28;20007;-84
2020/12/03 09:10:13;;;;;;;;;;;7.60;82.10;;;;;;5054801;28;19940;-84
2020/12/03 09:12:40;;;;;;;;;;;7.60;82.10;;;;;;5053730;28;19947;-84
2020/12/03 09:15:06;;;;;;;;;;;7.60;82.10;;;;;;5054488;28;19909;-84
2020/12/03 09:17:33;;;;;;;;;;;7.60;82.10;;;;;;5054571;28;19913;-84
2020/12/03 09:20:03;;;;;;;;;;;7.60;82.20;;;;;;5054255;28;19944;-85
2020/12/03 09:22:29;;;;;;;;;;;7.60;82.10;;;;;;5054583;28;19908;-84
2020/12/03 09:24:56;;;;;;;;;;;7.60;82.10;;;;;;5052796;28;19995;-84
2020/12/03 09:27:22;;;;;;;;;;;7.60;82.10;;;;;;5086842;28;20419;-84
2020/12/03 09:29:50;;;;;;;;;;;7.60;82.10;;;;;;5052696;28;20408;-84
2020/12/03 09:32:17;;;;;;;;;;;7.50;82.00;;;;;;5054323;28;19917;-84
2020/12/03 09:34:44;;;;;;;;;;;7.60;82.10;;;;;;5053835;28;19913;-84
2020/12/03 09:37:10;;;;;;;;;;;7.60;82.10;;;;;;5049269;28;19913;-84
2020/12/03 09:39:35;;;;;;;;;;;7.60;82.00;;;;;;5049202;28;19928;-84
2020/12/03 09:42:02;;;;;;;;;;;7.60;82.00;;;;;;5051341;28;19915;-84
2020/12/03 09:44:30;;;;;;;;;;;7.50;82.00;;;;;;5053332;28;19962;-85
2020/12/03 09:46:57;;;;;;;;;;;7.60;82.00;;;;;;5052946;28;19917;-84
2020/12/03 09:49:23;;;;;;;;;;;7.60;81.90;;;;;;5051291;28;19924;-84
2020/12/03 09:51:48;;;;;;;;;;;7.60;81.90;;;;;;5052545;28;19917;-85
2020/12/03 09:54:14;;;;;;;;;;;7.60;81.80;;;;;;5052326;28;20283;-85
2020/12/03 09:56:40;;;;;;;;;;;7.60;81.80;;;;;;5052623;28;19938;-83
2020/12/03 09:59:07;;;;;;;;;;;7.60;81.70;;;;;;5053969;28;19912;-84
2020/12/03 10:01:51;;;;;;;;;;;7.70;81.80;;;;;;5052461;28;19949;-84
2020/12/03 10:04:28;;;;;;;;;;;7.60;81.70;;;;;;5052648;28;20342;-84
2020/12/03 10:06:55;;;;;;;;;;;7.70;81.70;;;;;;5052102;28;19909;-84
2020/12/03 10:09:27;;;;;;;;;;;7.60;81.60;;;;;;5052321;28;19917;-84
2020/12/03 10:12:06;;;;;;;;;;;7.60;81.60;;;;;;5053333;28;19955;-84
2020/12/03 10:14:37;;;;;;;;;;;7.70;81.60;;;;;;5053498;28;19909;-84
2020/12/03 10:17:04;;;;;;;;;;;7.70;81.60;;;;;;5051710;28;19921;-83
2020/12/03 10:19:34;;;;;;;;;;;7.70;81.50;;;;;;5053423;28;19913;-84
2020/12/03 10:22:01;;;;;;;;;;;7.70;81.50;;;;;;5051908;28;19908;-84
2020/12/03 10:24:34;;;;;;;;;;;7.70;81.50;;;;;;5053242;28;20362;-84
2020/12/03 10:27:14;;;;;;;;;;;7.70;81.50;;;;;;5051963;28;20423;-84
2020/12/03 10:29:46;;;;;;;;;;;7.70;81.50;;;;;;5053343;28;19952;-84
2020/12/03 10:32:12;;;;;;;;;;;7.70;81.50;;;;;;5051835;28;20383;-83
2020/12/03 10:34:48;;;;;;;;;;;7.70;81.50;;;;;;5040565;28;19913;-84
2020/12/03 10:37:32;;;;;;;;;;;7.70;81.40;;;;;;5065162;28;20020;-84
2020/12/03 10:40:08;;;;;;;;;;;7.70;81.40;;;;;;5032089;28;19913;-84
2020/12/03 10:42:37;;;;;;;;;;;7.70;81.40;;;;;;5032107;28;20321;-84
2020/12/03 10:45:08;;;;;;;;;;;7.70;81.40;;;;;;5032109;28;19909;-84
2020/12/03 10:47:55;;;;;;;;;;;7.70;81.30;;;;;;5033351;28;20481;-84
2020/12/03 10:50:41;;;;;;;;;;;7.70;81.30;;;;;;5041804;28;19913;-84
2020/12/03 10:53:06;;;;;;;;;;;7.70;81.30;;;;;;5051670;28;19919;-84
2020/12/03 10:55:32;;;;;;;;;;;7.80;81.30;;;;;;5058689;28;19921;-85
2020/12/03 10:58:02;;;;;;;;;;;7.80;81.20;;;;;;5080490;28;20002;-85
2020/12/03 11:00:28;;;;;;;;;;;7.80;81.20;;;;;;5048900;28;19917;-85
2020/12/03 11:02:56;;;;;;;;;;;7.80;81.20;;;;;;5085079;28;19966;-85
2020/12/03 11:05:21;;;;;;;;;;;7.80;81.20;;;;;;5085241;28;20270;-85
2020/12/03 11:07:57;;;;;;;;;;;7.80;81.10;;;;;;5068506;28;19923;-85
2020/12/03 11:10:23;;;;;;;;;;;7.80;81.00;;;;;;5084919;28;19943;-85
2020/12/03 11:12:51;;;;;;;;;;;7.80;81.60;;;;;;5053019;28;19913;-85
2020/12/03 11:15:18;;;;;;;;;;;7.80;80.90;;;;;;5052978;28;20420;-85
2020/12/03 11:17:47;;;;;;;;;;;7.80;81.00;;;;;;5085041;28;20439;-85
2020/12/03 11:20:13;;;;;;;;;;;7.80;80.90;;;;;;5039704;28;20346;-85
2020/12/03 11:22:42;;;;;;;;;;;7.80;80.90;;;;;;5042677;28;19953;-85
2020/12/03 11:25:09;;;;;;;;;;;7.80;80.80;;;;;;5048763;28;19924;-85
2020/12/03 11:27:40;;;;;;;;;;;7.90;80.90;;;;;;5084329;28;19920;-85
2020/12/03 11:30:13;;;;;;;;;;;7.90;80.90;;;;;;5050429;28;20517;-85
2020/12/03 11:32:46;;;;;;;;;;;7.90;80.70;;;;;;5052325;28;20278;-85
2020/12/03 11:35:31;;;;;;;;;;;7.90;80.70;;;;;;5052143;28;19913;-85
2020/12/03 11:37:57;;;;;;;;;;;7.90;80.70;;;;;;5050944;28;19958;-85
2020/12/03 11:40:46;;;;;;;;;;;7.90;80.60;;;;;;5050653;28;19920;-85
2020/12/03 11:50:47;;;;;;;;;;;7.90;80.50;;;;;;5052977;28;19967;-87
2020/12/03 11:53:12;;;;;;;;;;;7.90;80.60;;;;;;5084766;28;19917;-85
2020/12/03 11:55:41;;;;;;;;;;;8.00;80.70;;;;;;5085079;28;19913;-87
2020/12/03 11:58:07;;;;;;;;;;;8.00;80.70;;;;;;5053929;28;19925;-86
2020/12/03 12:00:33;;;;;;;;;;;8.00;80.70;;;;;;5055011;28;19915;-87
2020/12/03 12:03:03;;;;;;;;;;;8.00;80.60;;;;;;5054506;28;19913;-86
2020/12/03 12:13:22;;;;;;;;;;;8.00;80.10;;;;;;5056271;28;19913;-86
2020/12/03 12:15:49;;;;;;;;;;;8.00;80.20;;;;;;5037957;28;19913;-86
2020/12/03 12:18:15;;;;;;;;;;;8.00;80.10;;;;;;5055468;28;19917;-85
2020/12/03 12:20:41;;;;;;;;;;;8.00;80.10;;;;;;5054468;28;20384;-84
2020/12/03 12:23:06;;;;;;;;;;;8.10;80.20;;;;;;5054242;28;19917;-85
2020/12/03 12:25:32;;;;;;;;;;;8.10;80.20;;;;;;5053438;28;19949;-85
2020/12/03 12:27:57;;;;;;;;;;;8.10;80.10;;;;;;5034138;28;19917;-86
2020/12/03 12:30:23;;;;;;;;;;;8.10;80.10;;;;;;5035322;28;19928;-85
2020/12/03 12:32:49;;;;;;;;;;;8.10;80.10;;;;;;5051057;28;19917;-85
2020/12/03 12:35:14;;;;;;;;;;;8.10;80.10;;;;;;5037775;28;19963;-85
2020/12/03 12:37:40;;;;;;;;;;;8.10;80.00;;;;;;5041548;28;20015;-85
2020/12/03 12:40:05;;;;;;;;;;;8.10;80.00;;;;;;5051195;28;19915;-85
2020/12/03 12:42:31;;;;;;;;;;;8.10;80.00;;;;;;5017771;28;19913;-85
2020/12/03 12:44:57;;;;;;;;;;;8.10;80.00;;;;;;5033775;28;19913;-86
2020/12/03 12:47:23;;;;;;;;;;;8.10;79.80;;;;;;5035397;28;19909;-86
2020/12/03 12:49:49;;;;;;;;;;;8.10;79.80;;;;;;5020744;28;20008;-84
2020/12/03 12:52:14;;;;;;;;;;;8.10;79.80;;;;;;5048089;28;19956;-85
2020/12/03 12:54:40;;;;;;;;;;;8.10;79.70;;;;;;5027372;28;19964;-85
2020/12/03 12:57:06;;;;;;;;;;;8.10;79.70;;;;;;5034241;28;20067;-85
2020/12/03 12:59:31;;;;;;;;;;;8.10;79.70;;;;;;5052925;28;19939;-85
2020/12/03 13:01:57;;;;;;;;;;;8.20;79.70;;;;;;5054525;28;19924;-84
2020/12/03 13:04:22;;;;;;;;;;;8.20;79.70;;;;;;5027973;28;19918;-84
2020/12/03 13:06:48;;;;;;;;;;;8.20;79.70;;;;;;5046151;28;19917;-85
2020/12/03 13:09:14;;;;;;;;;;;8.20;79.80;;;;;;5033833;28;20006;-85
2020/12/03 13:11:42;;;;;;;;;;;8.20;79.80;;;;;;5054880;28;19908;-85
2020/12/03 13:14:09;;;;;;;;;;;8.20;79.70;;;;;;5053070;28;19966;-85
2020/12/03 13:16:35;;;;;;;;;;;8.20;79.80;;;;;;5052370;28;19944;-86
2020/12/03 13:19:04;;;;;;;;;;;8.10;79.80;;;;;;5052996;28;20291;-85
2020/12/03 13:21:31;;;;;;;;;;;8.20;79.80;;;;;;5053398;28;19909;-86
2020/12/03 13:23:57;;;;;;;;;;;8.10;79.80;;;;;;5052813;28;20565;-85
2020/12/03 13:26:23;;;;;;;;;;;8.20;79.90;;;;;;5051675;28;19964;-85
2020/12/03 13:28:48;;;;;;;;;;;8.20;79.90;;;;;;5053210;28;19920;-85
2020/12/03 13:31:14;;;;;;;;;;;8.10;79.80;;;;;;5052711;28;20390;-87
2020/12/03 13:33:39;;;;;;;;;;;8.20;79.90;;;;;;5049266;28;20349;-86
2020/12/03 13:36:05;;;;;;;;;;;8.20;79.90;;;;;;5051528;28;20286;-85
2020/12/03 13:38:31;;;;;;;;;;;8.20;79.80;;;;;;5035798;28;19917;-84
2020/12/03 13:40:56;;;;;;;;;;;8.20;79.90;;;;;;5052710;28;20282;-85
2020/12/03 13:43:22;;;;;;;;;;;8.20;79.70;;;;;;5052985;28;19920;-86
2020/12/03 13:45:47;;;;;;;;;;;8.10;79.50;;;;;;5053058;28;19917;-85
2020/12/03 13:48:13;;;;;;;;;;;8.20;79.70;;;;;;5053779;28;19913;-85
2020/12/03 13:50:39;;;;;;;;;;;8.20;79.60;;;;;;5052746;28;19916;-85
2020/12/03 13:53:04;;;;;;;;;;;8.20;79.60;;;;;;5053690;28;19916;-86
2020/12/03 13:55:30;;;;;;;;;;;8.20;79.40;;;;;;5036310;28;19917;-84
2020/12/03 13:57:57;;;;;;;;;;;8.20;79.30;;;;;;5052634;28;19921;-85
2020/12/03 14:00:23;;;;;;;;;;;8.20;79.30;;;;;;5078478;28;19917;-85
2020/12/03 14:02:48;;;;;;;;;;;8.20;79.30;;;;;;5034664;28;19971;-84
2020/12/03 14:05:15;;;;;;;;;;;8.20;79.40;;;;;;5034789;28;20310;-84
2020/12/03 14:07:40;;;;;;;;;;;8.20;79.30;;;;;;5053586;28;19963;-85
2020/12/03 14:10:06;;;;;;;;;;;8.10;79.00;;;;;;5051901;28;19920;-84
2020/12/03 14:12:32;;;;;;;;;;;8.10;79.10;;;;;;5052194;28;19909;-83
2020/12/03 14:14:57;;;;;;;;;;;8.10;79.20;;;;;;5051863;28;19961;-85
2020/12/03 14:17:23;;;;;;;;;;;8.10;79.30;;;;;;5040255;28;20287;-85
2020/12/03 14:19:48;;;;;;;;;;;8.10;79.30;;;;;;5051936;28;20051;-85
2020/12/03 14:22:15;;;;;;;;;;;8.10;79.30;;;;;;5052913;28;20355;-85
2020/12/03 14:24:41;;;;;;;;;;;8.10;79.40;;;;;;5053167;23;20296;-83
2020/12/03 14:27:06;;;;;;;;;;;8.10;79.40;;;;;;5093346;28;19916;-83
2020/12/03 14:29:32;;;;;;;;;;;8.10;80.00;;;;;;5075440;28;19912;-83
2020/12/03 14:31:57;;;;;;;;;;;8.10;79.50;;;;;;5092178;28;19915;-84
2020/12/03 14:34:23;;;;;;;;;;;8.00;79.40;;;;;;5092289;28;19912;-84
2020/12/03 14:36:49;;;;;;;;;;;8.10;79.50;;;;;;5093465;28;19916;-83
2020/12/03 14:39:14;;;;;;;;;;;8.00;79.20;;;;;;5071790;28;19912;-82
2020/12/03 14:41:41;;;;;;;;;;;8.00;79.40;;;;;;5092134;28;19908;-83
2020/12/03 14:44:06;;;;;;;;;;;8.00;79.40;;;;;;5091551;28;19956;-83
2020/12/03 14:46:32;;;;;;;;;;;8.00;79.40;;;;;;5093527;28;20007;-84
2020/12/03 14:48:57;;;;;;;;;;;8.00;79.40;;;;;;5075665;28;19957;-83
2020/12/03 14:51:23;;;;;;;;;;;8.00;79.30;;;;;;5092050;28;19912;-83
2020/12/03 14:53:48;;;;;;;;;;;8.00;79.40;;;;;;5075085;28;21854;-83
2020/12/03 14:56:14;;;;;;;;;;;8.00;79.40;;;;;;5091374;28;19974;-82
2020/12/03 14:58:39;;;;;;;;;;;7.90;79.50;;;;;;5091954;28;19908;-83
2020/12/03 15:01:07;;;;;;;;;;;7.90;79.60;;;;;;5074513;28;20376;-84